createdAt,value
2023-12-07T00:00:18.669Z,-21.45
2023-12-07T00:03:22.149Z,-21.53
2023-12-07T00:06:25.700Z,-21.56
2023-12-07T00:09:29.353Z,-21.56
2023-12-07T00:12:33.152Z,-21.49
2023-12-07T00:15:36.886Z,-21.40
2023-12-07T00:18:40.684Z,-21.28
2023-12-07T00:21:44.470Z,-21.19
2023-12-07T00:24:48.065Z,-21.19
2023-12-07T00:27:51.780Z,-21.25
2023-12-07T00:30:55.652Z,-21.36
2023-12-07T00:33:59.490Z,-21.58
2023-12-07T00:37:03.343Z,-21.93
2023-12-07T00:40:07.804Z,-22.25
2023-12-07T00:43:11.561Z,-22.09
2023-12-07T00:46:15.182Z,-21.86
2023-12-07T00:49:18.946Z,-21.72
2023-12-07T00:52:23.325Z,-21.59
2023-12-07T00:55:27.262Z,-21.54
2023-12-07T00:58:31.073Z,-21.47
2023-12-07T01:01:34.707Z,-21.36
2023-12-07T01:04:38.754Z,-21.25
2023-12-07T01:07:42.558Z,-21.15
2023-12-07T01:10:46.309Z,-21.16
2023-12-07T01:13:49.915Z,-21.12
2023-12-07T01:16:53.670Z,-21.13
2023-12-07T01:19:57.371Z,-20.97
2023-12-07T01:23:01.246Z,-20.78
2023-12-07T01:26:05.033Z,-20.72
2023-12-07T01:29:08.670Z,-20.83
2023-12-07T01:32:12.452Z,-20.89
2023-12-07T01:35:16.050Z,-21.00
2023-12-07T01:38:19.697Z,-21.09
2023-12-07T01:41:23.557Z,-21.06
2023-12-07T01:44:28.663Z,-20.90
2023-12-07T01:47:33.244Z,-20.55
2023-12-07T01:50:38.048Z,-20.27
2023-12-07T01:53:41.934Z,-20.08
2023-12-07T01:56:45.718Z,-20.08
2023-12-07T01:59:51.150Z,-20.04
2023-12-07T02:02:54.975Z,-19.95
2023-12-07T02:06:00.165Z,-19.80
2023-12-07T02:09:04.707Z,-19.75
2023-12-07T02:12:08.394Z,-19.78
2023-12-07T02:15:13.201Z,-19.73
2023-12-07T02:18:37.285Z,-19.63
2023-12-07T02:21:47.842Z,-19.55
2023-12-07T02:25:03.214Z,-19.38
2023-12-07T02:28:07.067Z,-19.24
2023-12-07T02:31:10.755Z,-19.46
2023-12-07T02:34:14.490Z,-19.58
2023-12-07T02:37:19.257Z,-19.75
2023-12-07T02:40:30.642Z,-19.61
2023-12-07T02:43:35.386Z,-19.40
2023-12-07T02:46:39.904Z,-19.25
2023-12-07T02:49:43.494Z,-19.33
2023-12-07T02:52:47.551Z,-19.40
2023-12-07T02:55:51.274Z,-19.38
2023-12-07T02:58:54.838Z,-19.34
2023-12-07T03:01:58.592Z,-19.15
2023-12-07T03:05:02.287Z,-18.89
2023-12-07T03:08:06.134Z,-18.73
2023-12-07T03:11:09.802Z,-18.36
2023-12-07T03:14:13.705Z,-18.26
2023-12-07T03:17:17.368Z,-18.21
2023-12-07T03:20:20.822Z,-18.17
2023-12-07T03:23:24.343Z,-18.29
2023-12-07T03:26:27.930Z,-18.22
2023-12-07T03:29:32.506Z,-17.96
2023-12-07T03:32:36.382Z,-17.84
2023-12-07T03:35:40.095Z,-17.77
2023-12-07T03:38:43.748Z,-17.76
2023-12-07T03:41:47.298Z,-17.69
2023-12-07T03:44:51.585Z,-17.44
2023-12-07T03:47:55.352Z,-17.32
2023-12-07T03:50:58.969Z,-17.23
2023-12-07T03:54:02.423Z,-17.18
2023-12-07T03:57:06.871Z,-17.15
2023-12-07T04:00:13.938Z,-17.14
2023-12-07T04:03:17.579Z,-16.95
2023-12-07T04:06:22.614Z,-16.81
2023-12-07T04:09:26.244Z,-16.69
2023-12-07T04:12:29.942Z,-16.67
2023-12-07T04:15:33.577Z,-16.69
2023-12-07T04:18:37.827Z,-16.85
2023-12-07T04:21:41.390Z,-17.08
2023-12-07T04:24:45.526Z,-17.05
2023-12-07T04:27:49.179Z,-16.97
2023-12-07T04:30:52.837Z,-16.79
2023-12-07T04:33:56.602Z,-16.72
2023-12-07T04:37:00.470Z,-16.78
2023-12-07T04:40:06.933Z,-16.68
2023-12-07T04:43:10.784Z,-16.76
2023-12-07T04:46:15.494Z,-16.75
2023-12-07T04:49:20.673Z,-16.67
2023-12-07T04:52:24.538Z,-16.57
2023-12-07T04:55:28.444Z,-16.59
2023-12-07T04:58:31.949Z,-16.72
2023-12-07T05:01:37.738Z,-16.69
2023-12-07T05:04:41.443Z,-16.72
2023-12-07T05:07:45.187Z,-16.59
2023-12-07T05:10:49.071Z,-16.31
2023-12-07T05:13:53.239Z,-16.32
2023-12-07T05:16:57.682Z,-16.46
2023-12-07T05:20:01.282Z,-16.30
2023-12-07T05:23:05.164Z,-16.20
2023-12-07T05:26:09.843Z,-16.28
2023-12-07T05:29:13.572Z,-16.18
2023-12-07T05:32:17.454Z,-15.96
2023-12-07T05:35:20.947Z,-15.70
2023-12-07T05:38:24.689Z,-15.38
2023-12-07T05:41:28.637Z,-15.14
2023-12-07T05:44:32.662Z,-14.93
2023-12-07T05:47:36.934Z,-14.84
2023-12-07T05:50:41.313Z,-14.76
2023-12-07T05:53:45.680Z,-15.12
2023-12-07T05:56:49.315Z,-15.39
2023-12-07T05:59:52.813Z,-15.78
2023-12-07T06:02:56.537Z,-15.84
2023-12-07T06:06:00.046Z,-15.85
2023-12-07T06:09:03.794Z,-15.66
2023-12-07T06:12:07.579Z,-15.65
2023-12-07T06:15:11.767Z,-15.63
2023-12-07T06:18:16.453Z,-15.59
2023-12-07T06:21:22.480Z,-15.40
2023-12-07T06:24:26.439Z,-15.24
2023-12-07T06:27:30.081Z,-15.19
2023-12-07T06:30:33.755Z,-15.23
2023-12-07T06:33:37.472Z,-15.36
2023-12-07T06:36:41.093Z,-15.25
2023-12-07T06:39:45.059Z,-15.03
2023-12-07T06:42:50.089Z,-14.87
2023-12-07T06:45:54.821Z,-14.87
2023-12-07T06:48:58.379Z,-14.88
2023-12-07T06:52:02.161Z,-14.82
2023-12-07T06:55:06.518Z,-14.90
2023-12-07T06:58:10.797Z,-14.97
2023-12-07T07:01:16.060Z,-15.07
2023-12-07T07:04:20.607Z,-15.13
2023-12-07T07:07:24.443Z,-15.04
2023-12-07T07:10:28.171Z,-14.92
2023-12-07T07:13:31.920Z,-14.85
2023-12-07T07:16:35.845Z,-14.74
2023-12-07T07:19:39.606Z,-14.67
2023-12-07T07:22:43.235Z,-14.50
2023-12-07T07:25:47.043Z,-14.49
2023-12-07T07:28:51.942Z,-14.46
2023-12-07T07:31:56.151Z,-14.32
2023-12-07T07:34:59.966Z,-14.22
2023-12-07T07:38:03.662Z,-14.22
2023-12-07T07:41:07.673Z,-14.11
2023-12-07T07:44:11.260Z,-14.11
2023-12-07T07:47:15.181Z,-14.20
2023-12-07T07:50:19.512Z,-14.21
2023-12-07T07:53:23.270Z,-14.20
2023-12-07T07:56:26.963Z,-14.24
2023-12-07T07:59:30.746Z,-14.30
2023-12-07T08:02:34.224Z,-14.29
2023-12-07T08:05:37.982Z,-14.23
2023-12-07T08:08:41.662Z,-14.21
2023-12-07T08:11:45.699Z,-14.24
2023-12-07T08:14:50.342Z,-14.31
2023-12-07T08:17:54.214Z,-14.36
2023-12-07T08:20:58.085Z,-14.32
2023-12-07T08:24:01.843Z,-14.28
2023-12-07T08:27:05.761Z,-14.28
2023-12-07T08:30:11.309Z,-14.42
2023-12-07T08:33:15.710Z,-14.33
2023-12-07T08:36:19.367Z,-14.30
2023-12-07T08:39:23.132Z,-14.33
2023-12-07T08:42:28.477Z,-14.43
2023-12-07T08:45:32.152Z,-14.43
2023-12-07T08:48:37.113Z,-14.41
2023-12-07T08:51:56.719Z,-14.48
2023-12-07T08:55:05.613Z,-14.44
2023-12-07T08:58:10.151Z,-14.49
2023-12-07T09:01:25.344Z,-14.58
2023-12-07T09:04:34.391Z,-14.64
2023-12-07T09:07:38.481Z,-14.70
2023-12-07T09:10:42.270Z,-14.74
2023-12-07T09:13:45.829Z,-14.80
2023-12-07T09:16:49.581Z,-14.89
2023-12-07T09:19:53.359Z,-14.84
2023-12-07T09:22:59.130Z,-14.76
2023-12-07T09:26:03.161Z,-14.69
2023-12-07T09:29:07.667Z,-14.66
2023-12-07T09:32:11.701Z,-14.77
2023-12-07T09:35:17.193Z,-14.75
2023-12-07T09:38:20.914Z,-14.69
2023-12-07T09:41:25.789Z,-14.68
2023-12-07T09:44:29.800Z,-14.64
2023-12-07T09:47:37.464Z,-14.59
2023-12-07T09:50:42.236Z,-14.52
2023-12-07T09:53:47.663Z,-14.53
2023-12-07T09:56:53.273Z,-14.52
2023-12-07T09:59:58.126Z,-14.52
2023-12-07T10:03:01.820Z,-14.56
2023-12-07T10:06:06.335Z,-14.52
2023-12-07T10:09:15.029Z,-14.55
2023-12-07T10:12:24.167Z,-14.58
2023-12-07T10:15:27.971Z,-14.59
2023-12-07T10:18:32.060Z,-14.57
2023-12-07T10:21:36.090Z,-14.63
2023-12-07T10:24:40.192Z,-14.68
2023-12-07T10:27:46.914Z,-14.65
2023-12-07T10:30:50.648Z,-14.64
2023-12-07T10:33:54.754Z,-14.58
2023-12-07T10:36:59.888Z,-14.63
2023-12-07T10:40:04.897Z,-14.56
2023-12-07T10:43:09.922Z,-14.53
2023-12-07T10:46:20.386Z,-14.53
2023-12-07T10:49:34.262Z,-14.52
2023-12-07T10:52:46.775Z,-14.50
2023-12-07T10:55:58.132Z,-14.50
2023-12-07T10:59:01.599Z,-14.50
2023-12-07T11:02:08.565Z,-14.49
2023-12-07T11:05:12.730Z,-14.46
2023-12-07T11:08:47.383Z,-14.42
2023-12-07T11:12:07.981Z,-14.39
2023-12-07T11:15:12.091Z,-14.43
2023-12-07T11:18:16.058Z,-14.38
2023-12-07T11:21:19.959Z,-14.36
2023-12-07T11:24:25.668Z,-14.35
2023-12-07T11:27:33.855Z,-14.38
2023-12-07T11:30:38.275Z,-14.35
2023-12-07T11:33:43.578Z,-14.32
2023-12-07T11:36:48.430Z,-14.29
2023-12-07T11:39:52.549Z,-14.28
2023-12-07T11:42:56.192Z,-14.33
2023-12-07T11:45:59.957Z,-14.45
2023-12-07T11:49:04.822Z,-14.49
2023-12-07T11:52:19.165Z,-14.52
2023-12-07T11:55:22.836Z,-14.54
2023-12-07T11:58:31.358Z,-14.54
2023-12-07T12:01:35.492Z,-14.59
2023-12-07T12:04:40.142Z,-14.54
2023-12-07T12:07:43.940Z,-14.52
2023-12-07T12:10:49.634Z,-14.49
2023-12-07T12:13:53.352Z,-14.54
2023-12-07T12:17:00.329Z,-14.61
2023-12-07T12:20:05.764Z,-14.66
2023-12-07T12:23:09.448Z,-14.69
2023-12-07T12:26:13.259Z,-14.75
2023-12-07T12:29:23.623Z,-14.65
2023-12-07T12:32:47.692Z,-14.60
2023-12-07T12:36:09.018Z,-14.65
2023-12-07T12:39:22.878Z,-14.62
2023-12-07T12:42:30.806Z,-14.55
2023-12-07T12:45:35.755Z,-14.53
2023-12-07T12:48:40.016Z,-14.58
2023-12-07T12:51:44.190Z,-14.64
2023-12-07T12:54:50.458Z,-14.68
2023-12-07T12:57:54.906Z,-14.68
2023-12-07T13:00:58.668Z,-14.72
2023-12-07T13:04:02.481Z,-14.78
2023-12-07T13:07:06.273Z,-14.76
2023-12-07T13:10:10.466Z,-14.81
2023-12-07T13:13:14.399Z,-14.81
2023-12-07T13:16:22.698Z,-14.86
2023-12-07T13:19:26.503Z,-14.90
2023-12-07T13:22:30.356Z,-14.98
2023-12-07T13:25:34.134Z,-15.20
2023-12-07T13:28:38.864Z,-15.28
2023-12-07T13:31:43.072Z,-15.26
2023-12-07T13:34:46.879Z,-15.35
2023-12-07T13:37:50.455Z,-15.43
2023-12-07T13:40:54.414Z,-15.51
2023-12-07T13:43:58.110Z,-15.58
2023-12-07T13:47:02.028Z,-15.60
2023-12-07T13:50:06.817Z,-15.69
2023-12-07T13:53:14.368Z,-15.69
2023-12-07T13:56:17.856Z,-15.73
2023-12-07T13:59:21.543Z,-15.73
2023-12-07T14:02:25.645Z,-15.71
2023-12-07T14:05:29.529Z,-15.77
2023-12-07T14:08:33.264Z,-15.96
2023-12-07T14:11:37.171Z,-16.14
2023-12-07T14:14:41.895Z,-16.41
2023-12-07T14:17:53.159Z,-16.64
2023-12-07T14:21:08.239Z,-16.72
2023-12-07T14:24:22.125Z,-16.50
2023-12-07T14:27:26.392Z,-16.41
2023-12-07T14:30:30.384Z,-16.35
2023-12-07T14:33:34.216Z,-16.41
2023-12-07T14:36:40.852Z,-16.69
2023-12-07T14:39:45.705Z,-16.91
2023-12-07T14:42:49.381Z,-17.08
2023-12-07T14:45:54.381Z,-17.16
2023-12-07T14:48:58.100Z,-17.38
2023-12-07T14:52:02.360Z,-17.64
2023-12-07T14:55:07.444Z,-17.89
2023-12-07T14:58:10.928Z,-18.02
2023-12-07T15:01:14.552Z,-17.95
2023-12-07T15:04:25.180Z,-17.91
2023-12-07T15:07:35.101Z,-17.94
2023-12-07T15:10:39.167Z,-17.92
2023-12-07T15:13:43.658Z,-17.92
2023-12-07T15:16:47.256Z,-17.91
2023-12-07T15:19:51.325Z,-17.83
2023-12-07T15:22:54.981Z,-17.84
2023-12-07T15:25:59.057Z,-17.70
2023-12-07T15:29:02.841Z,-17.93
2023-12-07T15:32:07.609Z,-17.98
2023-12-07T15:35:11.253Z,-18.02
2023-12-07T15:38:15.086Z,-18.01
2023-12-07T15:41:18.844Z,-17.84
2023-12-07T15:44:28.120Z,-17.70
2023-12-07T15:47:33.488Z,-17.69
2023-12-07T15:50:37.298Z,-17.77
2023-12-07T15:53:40.967Z,-17.74
2023-12-07T15:56:46.118Z,-17.74
2023-12-07T15:59:49.950Z,-17.61
2023-12-07T16:02:55.283Z,-17.62
2023-12-07T16:05:59.142Z,-17.58
2023-12-07T16:09:02.836Z,-17.63
2023-12-07T16:12:08.017Z,-17.61
2023-12-07T16:15:12.517Z,-17.48
2023-12-07T16:18:16.228Z,-17.35
2023-12-07T16:21:22.814Z,-17.26
2023-12-07T16:24:26.619Z,-17.35
2023-12-07T16:27:30.156Z,-17.46
2023-12-07T16:30:40.390Z,-17.51
2023-12-07T16:33:49.677Z,-17.62
2023-12-07T16:36:53.306Z,-17.90
2023-12-07T16:39:58.174Z,-18.03
2023-12-07T16:43:01.779Z,-17.97
2023-12-07T16:46:05.854Z,-17.84
2023-12-07T16:49:10.399Z,-17.85
2023-12-07T16:52:14.172Z,-18.00
2023-12-07T16:55:17.683Z,-18.01
2023-12-07T16:58:29.962Z,-17.92
2023-12-07T17:01:35.277Z,-17.85
2023-12-07T17:04:38.914Z,-17.80
2023-12-07T17:07:42.720Z,-17.81
2023-12-07T17:10:46.215Z,-17.84
2023-12-07T17:13:50.347Z,-17.80
2023-12-07T17:16:54.159Z,-17.81
2023-12-07T17:19:58.681Z,-17.79
2023-12-07T17:23:02.282Z,-17.81
2023-12-07T17:26:06.183Z,-17.77
2023-12-07T17:29:11.126Z,-17.78
2023-12-07T17:32:14.698Z,-17.81
2023-12-07T17:35:18.646Z,-17.77
2023-12-07T17:38:22.390Z,-17.74
2023-12-07T17:41:25.905Z,-17.75
2023-12-07T17:44:29.748Z,-17.92
2023-12-07T17:47:33.270Z,-17.92
2023-12-07T17:50:36.983Z,-17.90
2023-12-07T17:53:41.390Z,-17.96
2023-12-07T17:56:45.428Z,-18.01
2023-12-07T17:59:49.500Z,-17.97
2023-12-07T18:02:53.249Z,-17.77
2023-12-07T18:05:57.159Z,-17.65
2023-12-07T18:09:00.816Z,-17.61
2023-12-07T18:12:04.759Z,-17.42
2023-12-07T18:15:11.916Z,-17.35
2023-12-07T18:18:15.577Z,-17.48
2023-12-07T18:21:20.200Z,-17.61
2023-12-07T18:24:23.889Z,-17.54
2023-12-07T18:27:27.556Z,-17.51
2023-12-07T18:30:31.084Z,-17.50
2023-12-07T18:33:34.947Z,-17.52
2023-12-07T18:36:38.450Z,-17.48
2023-12-07T18:39:42.105Z,-17.47
2023-12-07T18:42:45.610Z,-17.38
2023-12-07T18:45:49.766Z,-17.39
2023-12-07T18:48:53.550Z,-17.45
2023-12-07T18:51:57.342Z,-17.43
2023-12-07T18:55:00.958Z,-17.46
2023-12-07T18:58:04.588Z,-17.46
2023-12-07T19:01:08.253Z,-17.42
2023-12-07T19:04:11.796Z,-17.43
2023-12-07T19:07:15.540Z,-17.35
2023-12-07T19:10:19.585Z,-17.35
2023-12-07T19:13:23.293Z,-17.25
2023-12-07T19:16:30.753Z,-17.27
2023-12-07T19:19:35.798Z,-17.28
2023-12-07T19:22:39.549Z,-17.43
2023-12-07T19:25:43.296Z,-17.58
2023-12-07T19:28:47.264Z,-17.55
2023-12-07T19:31:51.103Z,-17.41
2023-12-07T19:34:55.037Z,-17.31
2023-12-07T19:37:58.607Z,-17.29
2023-12-07T19:41:07.497Z,-17.36
2023-12-07T19:44:14.878Z,-17.46
2023-12-07T19:47:18.479Z,-17.59
2023-12-07T19:50:22.110Z,-17.79
2023-12-07T19:53:25.644Z,-17.77
2023-12-07T19:56:30.751Z,-17.71
2023-12-07T19:59:34.460Z,-17.62
2023-12-07T20:02:38.646Z,-17.49
2023-12-07T20:05:42.271Z,-17.45
2023-12-07T20:08:46.882Z,-17.42
2023-12-07T20:11:50.999Z,-17.42
2023-12-07T20:14:54.763Z,-17.51
2023-12-07T20:17:58.478Z,-17.53
2023-12-07T20:21:02.854Z,-17.46
2023-12-07T20:24:08.023Z,-17.34
2023-12-07T20:27:11.677Z,-17.32
2023-12-07T20:30:15.450Z,-17.36
2023-12-07T20:33:19.127Z,-17.40
2023-12-07T20:36:22.903Z,-17.31
2023-12-07T20:39:27.605Z,-17.36
2023-12-07T20:42:31.152Z,-17.46
2023-12-07T20:45:34.965Z,-17.45
2023-12-07T20:48:38.708Z,-17.54
2023-12-07T20:51:42.627Z,-17.52
2023-12-07T20:54:48.299Z,-17.56
2023-12-07T20:57:53.152Z,-17.58
2023-12-07T21:00:56.898Z,-17.74
2023-12-07T21:04:00.573Z,-17.73
2023-12-07T21:07:04.128Z,-17.73
2023-12-07T21:10:08.247Z,-17.84
2023-12-07T21:13:11.953Z,-17.85
2023-12-07T21:16:15.595Z,-17.92
2023-12-07T21:19:21.019Z,-17.86
2023-12-07T21:22:25.414Z,-17.82
2023-12-07T21:25:29.020Z,-17.75
2023-12-07T21:28:32.877Z,-17.86
2023-12-07T21:31:37.104Z,-17.93
2023-12-07T21:34:44.613Z,-18.09
2023-12-07T21:37:48.228Z,-18.15
2023-12-07T21:40:52.105Z,-18.23
2023-12-07T21:43:55.830Z,-18.27
2023-12-07T21:46:59.680Z,-18.45
2023-12-07T21:50:05.282Z,-18.49
2023-12-07T21:53:09.062Z,-18.52
2023-12-07T21:56:15.600Z,-18.55
2023-12-07T21:59:19.296Z,-18.58
2023-12-07T22:02:23.011Z,-18.67
2023-12-07T22:05:26.699Z,-18.67
2023-12-07T22:08:30.672Z,-18.74
2023-12-07T22:11:34.390Z,-18.75
2023-12-07T22:14:40.072Z,-18.69
2023-12-07T22:17:43.743Z,-18.77
2023-12-07T22:20:47.518Z,-18.78
2023-12-07T22:23:51.251Z,-18.84
2023-12-07T22:26:55.011Z,-18.83
2023-12-07T22:29:59.082Z,-18.85
2023-12-07T22:33:02.970Z,-19.00
2023-12-07T22:36:07.174Z,-19.12
2023-12-07T22:39:11.024Z,-19.05
2023-12-07T22:42:14.532Z,-19.05
2023-12-07T22:45:19.850Z,-19.19
2023-12-07T22:48:23.918Z,-19.28
2023-12-07T22:51:27.564Z,-19.31
2023-12-07T22:54:31.169Z,-19.31
2023-12-07T22:57:34.928Z,-19.39
2023-12-07T23:00:38.716Z,-19.38
2023-12-07T23:03:42.495Z,-19.37
2023-12-07T23:06:46.048Z,-19.55
2023-12-07T23:09:50.087Z,-19.54
2023-12-07T23:12:53.765Z,-19.40
2023-12-07T23:15:57.381Z,-19.33
2023-12-07T23:19:01.191Z,-19.23
2023-12-07T23:22:04.992Z,-19.10
2023-12-07T23:25:08.804Z,-18.99
2023-12-07T23:28:12.470Z,-18.80
2023-12-07T23:31:16.387Z,-18.63
2023-12-07T23:34:20.088Z,-18.48
2023-12-07T23:37:24.394Z,-18.36
2023-12-07T23:40:28.282Z,-18.24
2023-12-07T23:43:31.664Z,-18.07
2023-12-07T23:46:35.232Z,-18.02
2023-12-07T23:49:38.861Z,-17.91
2023-12-07T23:52:42.735Z,-17.83
2023-12-07T23:55:46.787Z,-17.74
2023-12-07T23:58:50.447Z,-17.69
